CYBB/YBB METAR and TAF weather

Enter ICAO airport designator
Station Type Date Time Source
CYBB METAR 2020/03/28 20:00 UTC NOAA

CYBB 282000Z 20015KT 15SM DRSN FEW100 M28/M33 A3017 RMK AC1 AC TR PRESRR SLP220


Station Type Date Time Source
CYBB Decoded METAR 2020/03/28 20:00 UTC NOAA

Pelly Bay Airport, Canada (CYBB) 68-32N 089-49W
Mar 28, 2020 - 04:00 PM EDT / 2020.03.28 2000 UTC
Wind: from the SSW (200 degrees) at 17 MPH (15 KT):0
Visibility: 15 mile(s):0
Sky conditions: mostly clear
Weather: low drifting snow
Temperature: -18 F (-28 C)
Windchill: -43 F (-42 C):2
Dew Point: -27 F (-33 C)
Relative Humidity: 62%
Pressure (altimeter): 30.17 in. Hg (1021 hPa)
Pressure tendency: rising rapidly
ob: CYBB 282000Z 20015KT 15SM DRSN FEW100 M28/M33 A3017 RMK AC1 AC TR PRESRR SLP220
cycle: 20

Station Type Date Time Source
CYBB TAF 2020/03/28 19:00 UTC NOAA

TAF CYBB 281838Z 2819/2824 20018KT P6SM FEW100
RMK NXT FCST WILL BE ISSUED AT 291845Z

Example: see airport list